Wednesday, May 24, 2017, 4:11 AM EDT

KDOV, Dover Air Force Base

Location: Dover, DE, United States Lat: 39.133
Local Time: 4:11 AM EDT ( 8:11 GMT) Lon: -75.467
Time Zone: US/Eastern Elev: 29 ft

Show me the last for .
Show Decoded

2017-05-24 03:20 METAR KDOV 240720Z 03007KT 10SM BKN022 14/14 A2970 RMK AO2A DZE01 BKN V SCT
                 SLP060 $ =
2017-05-24 03:00 METAR KDOV 240700Z 02007KT 10SM FEW060 14/14 A2970 RMK AO2A SLP060 $ =
2017-05-24 02:58 METAR KDOV 240658Z 02007KT 10SM -DZ FEW060 14/14 A2970 RMK AO2A
                 RAE27DZB27E29RAB29E55DZB55 SLP060 P0002 T01380138 $ =
2017-05-24 02:14 METAR KDOV 240614Z 03005KT 10SM -RA FEW060 14/14 A2970 RMK AO2A SLP060 =
2017-05-24 02:03 METAR KDOV 240603Z 04005KT 9SM -RA FEW060 14/14 A2971 RMK AO2A SLP064 =
2017-05-24 01:58 METAR KDOV 240558Z 04006KT 9SM R01/5500FT -RA FEW060 14/14 A2971 RMK AO2A SLP064
                 P0004 60009 T01400140 10160 20140 55016 $ =
2017-05-24 01:28 METAR KDOV 240528Z 03005KT 10SM -RA FEW034 BKN060 14/14 A2972 RMK AO2A SLP067 =
2017-05-24 01:23 METAR KDOV 240523Z 04005KT 9SM R01/5500FT -RA FEW035 BKN060 14/14 A2973 RMK AO2A
                 SLP071 =
2017-05-24 00:58 METAR KDOV 240458Z 02005KT 10SM -RA FEW037 14/14 A2973 RMK AO2A RAB0358 SLP071
                 P0003 T01430143 401900132 $ =
2017-05-24 00:56 METAR KDOV 240456Z 03005KT 10SM -RA FEW037 14/14 A2973 RMK AO2A RAB0358 SLP071 $
                 =
2017-05-24 00:19 METAR KDOV 240419Z 05010KT 10SM -RA BKN100 14/14 A2971 RMK RAB0358 SLP064 =
2017-05-23 23:58 METAR KDOV 240358Z 05010KT 10SM CLR 14/14 A2973 RMK AO2A RAB0258 SLP071 P0002
                 T01440144 $ =
2017-05-23 22:58 METAR KDOV 240258Z AUTO 06009KT 10SM CLR 16/15 A2976 RMK AO2 RAB53 SLP081 P0000
                 60000 T01560152 57021 $ =
2017-05-23 21:58 METAR KDOV 240158Z AUTO 06005KT 10SM CLR 16/16 A2978 RMK AO2 SLP088 T01570155 $
                 =
2017-05-23 20:58 METAR KDOV 240058Z AUTO 08004KT 10SM CLR 15/15 A2980 RMK AO2 SLP094 T01530153 $
                 =
2017-05-23 19:58 METAR KDOV 232358Z AUTO 11003KT 10SM BKN100 16/15 A2982 RMK AO2 SLP101 T01600150
                 10183 20160 55009 $ =
2017-05-23 18:58 METAR KDOV 232258Z AUTO 11004KT 10SM SCT120 17/15 A2981 RMK AO2 SLP098 T01660148
                 $ =
2017-05-23 17:58 METAR KDOV 232158Z AUTO 12004KT 10SM SCT120 17/15 A2981 RMK AO2 SLP098 T01720147
                 $ =
2017-05-23 17:33 METAR KDOV 232133Z AUTO 12005KT 10SM SCT022 BKN200 17/15 A2983 RMK AO2 SLP105 $
                 =
2017-05-23 17:28 METAR KDOV 232128Z AUTO 12006KT 10SM BKN022 BKN200 18/15 A2983 RMK AO2 CIG
                 022V200 SLP105 =
2017-05-23 16:58 METAR KDOV 232058Z AUTO 11006KT 10SM FEW120 SCT200 18/15 A2984 RMK AO2 SLP108
                 T01790154 57018 $ =
2017-05-23 15:58 METAR KDOV 231958Z AUTO 11004KT 10SM SCT120 BKN160 BKN200 18/17 A2986 RMK AO2
                 SLP115 T01820173 $ =
2017-05-23 14:58 METAR KDOV 231858Z AUTO 12005KT 10SM SCT140 SCT180 SCT210 18/18 A2989 RMK AO2
                 SLP125 T01770177 $ =
2017-05-23 14:33 METAR KDOV 231833Z AUTO 09004KT 10SM SCT021 SCT130 BKN160 BKN200 18/18 A2989 RMK
                 AO2 SLP125 $ =
2017-05-23 14:28 METAR KDOV 231828Z AUTO 09003KT 10SM BKN021 BKN140 BKN190 18/18 A2989 RMK AO2
                 CIG 021V160 BKN021 V SCT SLP125 $ =
2017-05-23 13:58 METAR KDOV 231758Z AUTO 13005KT 10SM FEW120 BKN160 18/18 A2990 RMK AO2 SLP128
                 T01790179 10190 20162 58017 $ =
2017-05-23 13:13 METAR KDOV 231713Z AUTO 14007KT 9SM SCT017 SCT130 BKN160 18/18 A2992 RMK AO2
                 SLP135 $ =
2017-05-23 12:58 METAR KDOV 231658Z AUTO 13006KT 9SM BKN016 18/18 A2993 RMK AO2 BKN V OVC SLP138
                 T01840184 $ =
2017-05-23 11:58 METAR KDOV 231558Z AUTO 10005KT 9SM OVC019 19/19 A2994 RMK AO2 OVC V BKN SLP142
                 T01890189 $ =
2017-05-23 11:28 METAR KDOV 231528Z AUTO 10007KT 9SM BKN015 BKN022 19/19 A2994 RMK AO2 CIG
                 015V020 BKN015 V SCT CIG 015 RWY01 SLP142 $ =
2017-05-23 11:23 METAR KDOV 231523Z AUTO 10007KT 9SM BKN015 BKN020 19/19 A2994 RMK AO2 CIG
                 015V020 BKN015 V SCT CIG 015 RWY01 SLP142 $ =
2017-05-23 11:18 METAR KDOV 231518Z AUTO 09007KT 9SM BKN018 18/18 A2994 RMK AO2 CIG 016V020 BKN V
                 OVC CIG 015 RWY01 SLP142 $ =
2017-05-23 11:08 METAR KDOV 231508Z AUTO 08007KT 9SM OVC016 18/18 A2994 RMK AO2 SLP142 $ =
2017-05-23 10:58 METAR KDOV 231458Z AUTO 10005KT 9SM BKN014 OVC019 18/18 A2994 RMK AO2 SLP142
                 T01770177 55000 $ =
2017-05-23 10:53 METAR KDOV 231453Z AUTO 08006KT 10SM OVC015 18/18 A2994 RMK AO2 SLP142 $ =
2017-05-23 10:38 METAR KDOV 231438Z AUTO 06004KT 9SM BKN013 OVC190 18/18 A2994 RMK AO2 SLP142 $ =
2017-05-23 10:33 METAR KDOV 231433Z AUTO 06005KT 9SM BKN015 BKN190 18/18 A2995 RMK AO2 SLP145 =
2017-05-23 10:28 METAR KDOV 231428Z AUTO 08005KT 10SM BKN014 BKN160 BKN190 18/18 A2995 RMK AO2
                 CIG 014V160 BKN014 V SCT SLP145 $ =
2017-05-23 10:23 METAR KDOV 231423Z AUTO 06006KT 10SM BKN015 BKN160 BKN200 18/18 A2994 RMK AO2
                 CIG 014V190 SLP142 $ =
2017-05-23 10:13 METAR KDOV 231413Z AUTO 07007KT 9SM SCT014 BKN160 BKN190 18/18 A2994 RMK AO2
                 SLP142 $ =
2017-05-23 09:58 METAR KDOV 231358Z AUTO 08007KT 9SM BKN014 18/18 A2994 RMK AO2 SLP142 T01800180
                 $ =
2017-05-23 09:43 METAR KDOV 231343Z AUTO 07005KT 9SM BKN014 BKN170 OVC190 18/18 A2994 RMK AO2 CIG
                 014V170 SLP142 $ =
2017-05-23 08:58 METAR KDOV 231258Z AUTO 03004KT 9SM SCT170 SCT200 17/17 A2994 RMK AO2 SLP142
                 T01700170 $ =
2017-05-23 07:58 METAR KDOV 231158Z 03004KT 8SM SCT014 16/16 A2995 RMK AO2A SLP145 70081 10168
                 20132 52009 $ =
2017-05-23 07:53 METAR KDOV 231153Z 03006KT 7SM SCT014 BKN200 16/16 A2994 RMK AO2A SLP142 $ =
2017-05-23 07:48 METAR KDOV 231148Z 03007KT 7SM BKN014 BKN200 16/16 A2994 RMK AO2A CIG 014V180
                 BKN014 V SCT SLP142 $ =
2017-05-23 06:58 METAR KDOV 231058Z 34005KT 4SM HZ FEW001 15/15 A2994 RMK AO2A SLP142 $ =
2017-05-23 06:53 METAR KDOV 231053Z 34005KT 3SM BR SCT001 15/15 A2994 RMK AO2A SLP142 $ =
2017-05-23 06:48 METAR KDOV 231048Z AUTO 35004KT 2SM BR SCT001 15/ A2993 RMK AO2 VIS 1/2V2 SLP138
                 $ =
2017-05-23 06:43 METAR KDOV 231043Z AUTO 34004KT 1SM R19/P6000FT BR VV001 15/ A2994 RMK AO2 VIS
                 1/4V1 SLP142 $ =
2017-05-23 06:38 METAR KDOV 231038Z 34004KT 1/2SM R19/3000FT FG VV001 15/ A2993 RMK AO2A SLP138 $
                 =
2017-05-23 06:28 METAR KDOV 231028Z 34003KT 1/4SM R19/1200FT FG VV001 15/13 A2993 RMK AO2A VIS 2
                 RWY01 SLP138 $ =
2017-05-23 06:18 METAR KDOV 231018Z 33004KT M1/4SM R19/0900FT FG VV001 14/13 A2993 RMK AO2A
                 SLP138 $ =
2017-05-23 06:13 METAR KDOV 231013Z 34004KT 1/4SM R19/1000FT FG VV001 13/13 A2993 RMK AO2A SLP138
                 =
2017-05-23 05:58 METAR KDOV 230958Z 33003KT 1/4SM R19/1400FT FG VV001 14/14 A2993 RMK AO2A VIS 2
                 1/2 RWY01 SLP138 $ =
2017-05-23 05:56 METAR KDOV 230956Z 00000KT 1/4SM R19/1400FT FG VV001 14/14 A2993 RMK AO2A VIS 2
                 1/2 RWY01 SLP138 $ =
2017-05-23 05:53 METAR KDOV 230953Z 33003KT 1/4SM R19/1400FT FG CLR 14/14 A2993 RMK AO2A SLP138 $
                 =
2017-05-23 05:48 METAR KDOV 230948Z 33005KT 1/4SM R19/1000FT FG CLR 14/14 A2993 RMK AO2A VIS 1
                 1/2 RWY01 SLP138 $ =
2017-05-23 05:43 METAR KDOV 230943Z 33004KT M1/4SM R19/0900FT FG CLR 14/14 A2993 RMK AO2A SLP138
                 $ =
2017-05-23 05:38 METAR KDOV 230938Z 33005KT 1/4SM R19/1200FT FG CLR 14/14 A2993 RMK AO2A VIS
                 1/4V3/4 SLP138 $ =
2017-05-23 05:33 METAR KDOV 230933Z 33004KT 1/2SM R19/1800FT FG CLR 14/ A2993 RMK AO2A VIS 2 1/2
                 RWY01 SLP138 $ =
2017-05-23 05:28 METAR KDOV 230928Z 32003KT 3/4SM R19/2000FT BR CLR 14/ A2993 RMK AO2A SLP138 $ =
2017-05-23 05:23 METAR KDOV 230923Z 32003KT 3/4SM R19/1800FT BR CLR 14/ A2993 RMK AO2A VIS 2
                 RWY01 SLP138 $ =
2017-05-23 05:18 METAR KDOV 230918Z 32003KT 3/4SM R19/1400FT BR CLR 15/ A2992 RMK AO2A VIS 1/2V1
                 1/4 VIS 2 RWY01 SLP135 $ =
2017-05-23 05:13 METAR KDOV 230913Z 32003KT 3/4SM R19/1600FT BR CLR 15/ A2992 RMK AO2A VIS 3/4V4
                 SLP135 $ =
2017-05-23 05:08 METAR KDOV 230908Z 00000KT 1 1/2SM R19/3000FT BR CLR 15/15 A2992 RMK AO2A VIS 1
                 1/2V5 SLP135 $ =
2017-05-23 04:58 METAR KDOV 230858Z 31004KT 5SM R19/4500FT BR CLR 15/15 A2992 RMK AO2A SLP135
                 T01500148 55002 $ =
2017-05-23 04:53 METAR KDOV 230853Z 31004KT 1 3/4SM R19/3500FT BR CLR 15/15 A2992 RMK AO2A VIS
                 1/2V1 3/4 SLP135 $ =
2017-05-23 04:48 METAR KDOV 230848Z 31003KT 3/4SM R19/2000FT BR CLR 15/15 A2992 RMK AO2A SLP135 $
                 =
2017-05-23 04:33 METAR KDOV 230833Z 00000KT 1/2SM R19/1400FT FG CLR 15/15 A2992 RMK AO2A SLP135 $
                 =
2017-05-23 04:28 METAR KDOV 230828Z 00000KT 3/4SM R19/1400FT BR CLR 15/15 A2992 RMK AO2A SLP135 $
                 =
2017-05-23 04:23 METAR KDOV 230823Z 00000KT 1/2SM R19/1400FT FG CLR 15/15 A2992 RMK AO2A VIS
                 1/2V1 1/2 SLP135 $ =
2017-05-23 04:18 METAR KDOV 230818Z 00000KT 3/4SM R19/2000FT BR CLR 15/15 A2992 RMK AO2A VIS
                 3/4V2 1/2 SLP135 $ =
2017-05-23 04:13 METAR KDOV 230813Z 00000KT 1 3/4SM R19/3000FT BR CLR 15/15 A2991 RMK AO2A VIS 1
                 3/4V4 SLP132 $ =

Support USWX by starting your Amazon purchase here.